Time;durP1;ratioP1;P1;durP2;ratioP2;P2;SDS_P1;SDS_P2;PMS_P1;PMS_P2;Temp;Humidity;BMP_temperature;BMP_pressure;BME280_temperature;BME280_humidity;BME280_pressure;Samples;Min_cycle;Max_cycle;Signal;HPM_P1;HPM_P2
2022/05/17 00:01:22;;;;;;;6.25;2.80;;;;;;;22.38;49.81;101645.90;1676789;84;21513;-51
2022/05/17 00:03:48;;;;;;;3.95;2.47;;;;;;;22.32;49.86;101638.29;1640821;85;21175;-49
2022/05/17 00:06:15;;;;;;;6.53;2.75;;;;;;;22.29;49.87;101626.55;1655154;84;21036;-49
2022/05/17 00:08:43;;;;;;;5.12;2.50;;;;;;;22.27;49.71;101621.80;1655278;85;21510;-49
2022/05/17 00:11:10;;;;;;;3.90;2.50;;;;;;;22.25;49.67;101619.72;1674019;84;21091;-46
2022/05/17 00:13:37;;;;;;;3.50;2.30;;;;;;;22.22;49.70;101615.89;1659993;85;21095;-47
2022/05/17 00:16:05;;;;;;;3.45;2.37;;;;;;;22.22;49.64;101622.52;1648811;85;21194;-48
2022/05/17 00:18:33;;;;;;;4.10;2.72;;;;;;;22.21;49.46;101634.09;1665379;85;21010;-48
2022/05/17 00:21:00;;;;;;;3.55;2.30;;;;;;;22.20;49.53;101631.03;1660521;85;21561;-51
2022/05/17 00:23:26;;;;;;;4.58;2.60;;;;;;;22.19;49.69;101635.10;1655037;84;21116;-52
2022/05/17 00:25:53;;;;;;;4.62;2.50;;;;;;;22.19;49.85;101625.36;1678907;83;21062;-46
2022/05/17 00:28:21;;;;;;;4.50;2.42;;;;;;;22.21;49.91;101630.57;1693854;84;21090;-51
2022/05/17 00:30:49;;;;;;;4.75;2.47;;;;;;;22.22;49.67;101642.41;1672520;85;21066;-52
2022/05/17 00:33:16;;;;;;;4.40;2.40;;;;;;;22.19;49.12;101638.62;1672615;84;21034;-47
2022/05/17 00:38:14;;;;;;;2.47;2.27;;;;;;;22.17;48.92;101636.98;1606879;88;21545;-47
2022/05/17 00:40:41;;;;;;;6.90;2.60;;;;;;;22.16;48.71;101639.23;1600546;88;21031;-47
2022/05/17 00:43:09;;;;;;;5.05;2.60;;;;;;;22.16;48.50;101628.17;1610578;88;21548;-51
2022/05/17 00:45:38;;;;;;;3.83;2.62;;;;;;;22.16;48.37;101633.47;1595919;89;21031;-50
2022/05/17 00:48:08;;;;;;;4.90;2.70;;;;;;;22.17;48.32;101629.90;1597686;88;21034;-46
2022/05/17 00:50:42;;;;;;;5.42;2.62;;;;;;;22.18;48.21;101628.94;1597768;89;21646;-48
2022/05/17 00:53:26;;;;;;;4.80;2.30;;;;;;;22.20;48.02;101629.70;1596834;88;21124;-47
2022/05/17 00:56:03;;;;;;;5.12;2.50;;;;;;;22.19;47.64;101635.97;1596884;88;21102;-50
2022/05/17 00:58:35;;;;;;;4.60;2.20;;;;;;;22.16;47.24;101633.94;1603864;88;21093;-49
2022/05/17 01:01:23;;;;;;;6.37;2.80;;;;;;;22.11;47.09;101635.55;1568086;89;21592;-46
2022/05/17 01:04:06;;;;;;;4.80;2.30;;;;;;;22.09;46.92;101623.30;1522845;92;21103;-50
2022/05/17 01:06:43;;;;;;;3.05;2.20;;;;;;;22.07;46.87;101620.72;1515204;92;21162;-50
2022/05/17 01:09:12;;;;;;;4.53;2.37;;;;;;;22.05;46.97;101613.32;1490318;95;21077;-46
2022/05/17 01:11:41;;;;;;;5.70;2.47;;;;;;;22.02;46.97;101619.27;1501824;94;21078;-46
2022/05/17 01:16:55;;;;;;;4.30;2.33;;;;;;;21.97;47.05;101610.73;1486484;95;21154;-47
2022/05/17 01:19:23;;;;;;;4.30;2.00;;;;;;;21.94;47.22;101594.53;1497224;96;21709;-50
2022/05/17 01:21:50;;;;;;;2.87;2.58;;;;;;;21.94;47.32;101589.23;1495226;95;21097;-51
2022/05/17 01:24:16;;;;;;;6.33;2.58;;;;;;;21.97;47.54;101585.07;1482474;96;21161;-49
2022/05/17 01:26:44;;;;;;;6.12;2.30;;;;;;;21.97;47.59;101585.07;1489331;96;21137;-50
2022/05/17 01:29:13;;;;;;;5.50;2.50;;;;;;;21.99;47.68;101582.36;1484887;95;21235;-49
2022/05/17 01:31:41;;;;;;;4.62;2.17;;;;;;;21.99;47.82;101582.36;1495059;95;21175;-47
2022/05/17 01:34:10;;;;;;;4.35;2.77;;;;;;;22.01;47.93;101579.16;1487879;94;21589;-51
2022/05/17 01:36:39;;;;;;;3.75;2.45;;;;;;;22.01;48.02;101576.00;1543278;91;21111;-50
2022/05/17 01:39:06;;;;;;;8.53;2.87;;;;;;;21.98;48.19;101576.20;1537187;92;21650;-46
2022/05/17 01:41:32;;;;;;;7.03;2.37;;;;;;;21.97;48.42;101579.77;1542695;91;21091;-50
2022/05/17 01:43:59;;;;;;;5.35;2.52;;;;;;;21.98;48.53;101581.50;1530154;92;21151;-52
2022/05/17 01:46:26;;;;;;;6.92;2.15;;;;;;;21.98;48.67;101574.88;1537016;92;21056;-47
2022/05/17 01:48:54;;;;;;;7.83;2.90;;;;;;;22.00;48.87;101574.31;1532920;93;21091;-49
2022/05/17 01:51:21;;;;;;;4.97;2.27;;;;;;;22.04;48.93;101578.96;1526497;93;21102;-50
2022/05/17 01:53:48;;;;;;;3.35;2.22;;;;;;;22.06;49.05;101576.62;1529035;92;21093;-50
2022/05/17 01:56:15;;;;;;;4.37;2.40;;;;;;;22.09;49.18;101574.27;1514318;91;21112;-49
2022/05/17 01:58:42;;;;;;;3.85;2.20;;;;;;;22.10;49.35;101574.64;1495217;95;21186;-46
2022/05/17 02:01:10;;;;;;;3.67;2.50;;;;;;;22.10;49.52;101572.85;1511287;93;21128;-46
2022/05/17 02:03:36;;;;;;;2.25;1.92;;;;;;;22.11;49.61;101579.88;1515518;93;21172;-46
2022/05/17 02:06:04;;;;;;;3.37;1.87;;;;;;;22.11;49.71;101571.92;1591349;86;21069;-47
2022/05/17 02:08:31;;;;;;;4.17;2.00;;;;;;;22.11;49.36;101560.00;1633617;86;21114;-46
2022/05/17 02:10:58;;;;;;;2.58;1.85;;;;;;;22.13;48.85;101567.85;1626971;86;21144;-50
2022/05/17 02:13:24;;;;;;;2.17;1.67;;;;;;;22.15;48.47;101566.83;1614827;87;21498;-47
2022/05/17 02:15:51;;;;;;;2.25;1.52;;;;;;;22.16;48.24;101568.53;1645369;85;21057;-46
2022/05/17 02:18:18;;;;;;;2.37;1.80;;;;;;;22.19;48.42;101567.04;1615326;86;21105;-50
2022/05/17 02:20:45;;;;;;;2.15;1.62;;;;;;;22.22;48.25;101561.55;1637952;86;21136;-52
2022/05/17 02:23:12;;;;;;;1.55;1.45;;;;;;;22.25;48.10;101561.39;1636485;86;21620;-49
2022/05/17 02:25:39;;;;;;;3.00;1.65;;;;;;;22.28;48.02;101561.19;1641080;85;21127;-46
2022/05/17 02:28:08;;;;;;;1.95;1.60;;;;;;;22.30;47.94;101561.95;1600825;87;21098;-47
2022/05/17 02:30:36;;;;;;;2.87;1.45;;;;;;;22.33;47.72;101557.81;1619884;87;21209;-46
2022/05/17 02:33:04;;;;;;;2.08;1.50;;;;;;;22.35;47.58;101546.66;1606388;87;21084;-50
2022/05/17 02:35:32;;;;;;;4.75;1.77;;;;;;;22.36;47.49;101550.99;1595530;89;21640;-47
2022/05/17 02:37:59;;;;;;;2.52;1.45;;;;;;;22.36;47.43;101552.32;1607830;88;21662;-50
2022/05/17 02:40:26;;;;;;;1.95;1.50;;;;;;;22.39;47.22;101556.14;1596331;88;21077;-46
2022/05/17 02:42:53;;;;;;;3.37;1.85;;;;;;;22.41;46.93;101550.27;1601678;87;21076;-50
2022/05/17 02:45:20;;;;;;;3.50;1.65;;;;;;;22.42;46.76;101553.28;1602484;87;21074;-46
2022/05/17 02:47:47;;;;;;;2.58;1.60;;;;;;;22.44;46.64;101556.70;1597303;87;21059;-47
2022/05/17 02:50:15;;;;;;;2.15;1.62;;;;;;;22.43;46.57;101555.02;1603135;87;21085;-46
2022/05/17 02:52:42;;;;;;;3.42;1.98;;;;;;;22.44;46.60;101559.36;1598237;87;21166;-46
2022/05/17 02:55:09;;;;;;;6.40;2.52;;;;;;;22.44;47.16;101567.31;1605917;87;21533;-47
2022/05/17 02:57:38;;;;;;;3.77;2.62;;;;;;;22.43;48.11;101566.95;1601519;88;21102;-49
2022/05/17 03:00:09;;;;;;;4.72;2.70;;;;;;;22.41;48.97;101571.48;1608444;87;21124;-47
2022/05/17 03:02:37;;;;;;;3.05;2.40;;;;;;;22.39;49.58;101568.07;1598733;88;21093;-46
2022/05/17 03:05:05;;;;;;;5.08;2.50;;;;;;;22.36;50.00;101571.38;1634753;87;21012;-49
2022/05/17 03:07:31;;;;;;;4.58;2.70;;;;;;;22.34;50.16;101582.05;1637445;87;21634;-47
2022/05/17 03:09:59;;;;;;;3.95;3.15;;;;;;;22.32;50.32;101586.59;1592722;88;21079;-47
2022/05/17 03:12:26;;;;;;;3.40;2.33;;;;;;;22.32;50.39;101583.94;1604632;88;21092;-46
2022/05/17 03:14:54;;;;;;;4.85;3.20;;;;;;;22.31;50.45;101582.24;1633604;87;21105;-50
2022/05/17 03:17:21;;;;;;;8.40;2.50;;;;;;;22.33;50.35;101584.80;1598720;87;21069;-46
2022/05/17 03:19:49;;;;;;;7.17;2.58;;;;;;;22.35;50.07;101581.12;1609924;88;21101;-49
2022/05/17 03:22:16;;;;;;;4.97;2.70;;;;;;;22.38;49.92;101586.23;1631543;87;21053;-51
2022/05/17 03:24:43;;;;;;;5.33;2.27;;;;;;;22.40;49.84;101584.34;1647711;85;20998;-50
2022/05/17 03:27:11;;;;;;;3.70;2.95;;;;;;;22.43;49.79;101586.84;1702683;83;21058;-51
2022/05/17 03:29:39;;;;;;;7.67;2.85;;;;;;;22.44;49.85;101595.16;1693359;83;21082;-46
2022/05/17 03:32:08;;;;;;;5.70;2.80;;;;;;;22.45;49.84;101594.70;1678409;84;21054;-51
2022/05/17 03:34:37;;;;;;;4.62;2.40;;;;;;;22.44;49.85;101591.19;1677263;84;21541;-49
2022/05/17 03:37:05;;;;;;;4.85;3.00;;;;;;;22.41;50.07;101595.36;1677191;85;21140;-47
2022/05/17 03:39:32;;;;;;;6.83;3.17;;;;;;;22.44;50.28;101593.83;1676279;85;21031;-46
2022/05/17 03:42:00;;;;;;;4.90;2.42;;;;;;;22.39;50.83;101594.59;1687689;84;21562;-48
2022/05/17 03:44:27;;;;;;;3.52;2.77;;;;;;;22.37;51.30;101592.50;1696379;83;21035;-49
2022/05/17 03:46:54;;;;;;;3.77;2.70;;;;;;;22.38;51.62;101591.54;1682382;83;21084;-50
2022/05/17 03:49:20;;;;;;;4.33;2.62;;;;;;;22.40;51.91;101588.82;1694884;84;21053;-47
2022/05/17 03:51:47;;;;;;;5.47;3.10;;;;;;;22.41;52.26;101588.72;1682133;84;21050;-51
2022/05/17 03:54:20;;;;;;;5.35;3.00;;;;;;;22.43;52.44;101580.67;1683560;84;21050;-53
2022/05/17 03:56:48;;;;;;;4.08;2.90;;;;;;;22.45;52.66;101577.45;1677069;85;21065;-49
2022/05/17 03:59:15;;;;;;;4.50;2.90;;;;;;;22.46;52.90;101582.66;1695562;84;21094;-47
2022/05/17 04:01:42;;;;;;;5.28;3.20;;;;;;;22.54;52.94;101584.43;1702642;84;21177;-50
2022/05/17 04:04:09;;;;;;;4.92;2.95;;;;;;;22.56;53.04;101584.33;1679522;84;21545;-50
2022/05/17 04:06:36;;;;;;;3.67;2.77;;;;;;;22.57;53.11;101584.23;1671197;84;21022;-47
2022/05/17 04:09:05;;;;;;;6.15;3.00;;;;;;;22.60;53.25;101585.89;1690778;84;21006;-47
2022/05/17 04:11:33;;;;;;;3.10;2.60;;;;;;;22.61;53.31;101588.45;1693862;84;21029;-49
2022/05/17 04:14:00;;;;;;;4.40;2.75;;;;;;;22.61;52.90;101577.84;1699387;83;21072;-49
2022/05/17 04:16:34;;;;;;;2.58;2.35;;;;;;;22.59;52.59;101582.84;1685000;83;21056;-47
2022/05/17 04:19:01;;;;;;;5.45;2.67;;;;;;;22.67;52.14;101581.09;1665849;85;21029;-47
2022/05/17 04:21:30;;;;;;;3.95;2.67;;;;;;;22.70;51.95;101577.77;1650101;85;21074;-47
2022/05/17 04:23:57;;;;;;;7.28;2.70;;;;;;;22.74;51.77;101571.80;1661741;85;21113;-47
2022/05/17 04:26:24;;;;;;;5.25;3.12;;;;;;;22.78;51.65;101574.66;1658951;86;21125;-51
2022/05/17 04:28:53;;;;;;;3.77;2.85;;;;;;;22.82;51.70;101573.53;1650374;85;21593;-47
2022/05/17 04:31:22;;;;;;;4.50;3.10;;;;;;;22.87;52.04;101575.45;1635146;86;21216;-48
2022/05/17 04:33:50;;;;;;;5.58;2.85;;;;;;;22.90;52.49;101580.55;1642273;86;21126;-46
2022/05/17 04:36:17;;;;;;;7.53;3.02;;;;;;;22.93;52.84;101581.72;1644115;85;21073;-50
2022/05/17 04:38:45;;;;;;;6.15;2.85;;;;;;;22.94;53.04;101588.25;1645016;85;21080;-46
2022/05/17 04:41:12;;;;;;;4.55;2.60;;;;;;;22.98;52.95;101594.25;1643652;86;21518;-46
2022/05/17 04:43:40;;;;;;;5.40;3.10;;;;;;;22.99;52.83;101595.95;1658952;85;21063;-46
2022/05/17 04:46:10;;;;;;;4.95;2.90;;;;;;;23.01;52.58;101601.55;1640446;86;21043;-47
2022/05/17 04:48:37;;;;;;;4.45;2.65;;;;;;;23.04;52.34;101597.86;1637514;87;21058;-48
2022/05/17 04:51:09;;;;;;;6.47;2.95;;;;;;;23.06;51.83;101597.30;1641473;87;21090;-52
2022/05/17 04:53:37;;;;;;;;;;;;;;;23.09;51.41;101597.09;1536117;91;21952;-46
2022/05/17 04:56:05;;;;;;;4.85;2.98;;;;;;;23.10;50.98;101592.19;1546229;91;20198;-47
2022/05/17 04:58:33;;;;;;;5.97;2.75;;;;;;;23.12;50.54;101583.66;1536068;92;21100;-51
2022/05/17 05:01:01;;;;;;;6.37;2.95;;;;;;;23.06;50.48;101586.68;1534060;92;21589;-46
2022/05/17 05:03:28;;;;;;;7.47;3.47;;;;;;;23.04;50.34;101585.92;1534040;93;21094;-47
2022/05/17 05:05:55;;;;;;;7.17;3.33;;;;;;;23.04;50.35;101585.92;1533841;92;21059;-49
2022/05/17 05:08:24;;;;;;;4.25;2.70;;;;;;;23.01;50.32;101580.78;1533893;92;21128;-50
2022/05/17 05:10:50;;;;;;;6.15;2.80;;;;;;;23.06;50.20;101576.06;1533887;92;21665;-47
2022/05/17 05:13:20;;;;;;;7.95;2.77;;;;;;;23.07;50.34;101569.79;1534177;93;21179;-49
2022/05/17 05:15:47;;;;;;;5.08;2.60;;;;;;;23.10;50.43;101561.66;1508861;94;21070;-49
2022/05/17 05:18:14;;;;;;;4.40;2.67;;;;;;;23.15;50.82;101567.52;1510807;95;21105;-50
2022/05/17 05:20:43;;;;;;;2.90;2.45;;;;;;;23.23;51.08;101571.88;1506491;95;21733;-50
2022/05/17 05:23:11;;;;;;;4.75;2.58;;;;;;;23.31;50.62;101573.59;1510811;95;21128;-50
2022/05/17 05:25:38;;;;;;;4.60;2.52;;;;;;;23.39;50.41;101568.22;1511309;95;21609;-46
2022/05/17 05:28:07;;;;;;;6.50;2.77;;;;;;;23.47;50.48;101559.80;1511057;94;21157;-51
2022/05/17 05:30:34;;;;;;;9.23;3.00;;;;;;;23.57;51.22;101558.27;1510859;95;21069;-46
2022/05/17 05:33:02;;;;;;;6.10;3.05;;;;;;;23.76;52.32;101552.14;1510867;95;21658;-50
2022/05/17 05:35:29;;;;;;;4.75;2.90;;;;;;;24.03;52.49;101555.72;1510822;95;21113;-49
2022/05/17 05:37:56;;;;;;;3.72;2.80;;;;;;;24.31;52.46;101559.24;1511310;95;21629;-52
2022/05/17 05:40:24;;;;;;;5.40;2.98;;;;;;;24.56;51.77;101568.16;1510767;95;21120;-49
2022/05/17 05:42:51;;;;;;;3.52;2.35;;;;;;;24.75;50.63;101562.48;1510694;95;21128;-48
2022/05/17 05:45:18;;;;;;;4.22;2.77;;;;;;;24.89;49.23;101565.05;1510731;95;21133;-50
2022/05/17 05:47:45;;;;;;;4.20;1.80;;;;;;;25.00;48.38;101563.34;1510950;95;21112;-49
2022/05/17 05:50:12;;;;;;;4.10;2.22;;;;;;;25.14;46.84;101561.55;1539281;90;21118;-50
2022/05/17 05:52:39;;;;;;;4.25;2.42;;;;;;;25.28;45.51;101555.64;1566293;91;21130;-46
2022/05/17 05:55:09;;;;;;;3.60;2.12;;;;;;;25.39;44.72;101558.38;1565090;92;21079;-50
2022/05/17 05:57:36;;;;;;;5.08;2.45;;;;;;;25.47;44.12;101561.38;1545375;92;21003;-51
2022/05/17 06:00:06;;;;;;;3.12;2.20;;;;;;;25.53;43.99;101568.94;1564750;92;21163;-47
2022/05/17 06:02:34;;;;;;;2.77;2.22;;;;;;;25.58;43.92;101561.48;1562243;92;21126;-47
2022/05/17 06:05:01;;;;;;;6.30;2.90;;;;;;;25.63;43.93;101568.68;1565146;92;21110;-53
2022/05/17 06:07:28;;;;;;;3.77;2.33;;;;;;;25.65;44.28;101580.08;1564910;92;21172;-49
2022/05/17 06:09:56;;;;;;;9.75;2.80;;;;;;;25.67;44.35;101578.16;1565046;92;21111;-45
2022/05/17 06:12:24;;;;;;;3.25;2.33;;;;;;;25.72;44.64;101586.66;1615248;85;21530;-46
2022/05/17 06:14:52;;;;;;;4.05;2.67;;;;;;;25.72;44.64;101586.66;1697529;83;21620;-49
2022/05/17 06:17:24;;;;;;;3.12;2.33;;;;;;;25.76;44.83;101588.14;1679637;83;21128;-46
2022/05/17 06:19:48;;;;;;;4.60;2.60;;;;;;;25.79;44.89;101590.61;1681599;83;21037;-45
2022/05/17 06:22:15;;;;;;;6.55;2.58;;;;;;;25.83;44.80;101582.76;1677137;83;21145;-46
2022/05/17 06:24:42;;;;;;;3.50;2.35;;;;;;;25.88;45.04;101586.91;1678659;83;21037;-47
2022/05/17 06:27:09;;;;;;;5.53;2.80;;;;;;;25.91;45.33;101588.00;1694958;84;21072;-46
2022/05/17 06:29:37;;;;;;;5.78;2.35;;;;;;;25.89;45.75;101583.26;1699765;83;21049;-50
2022/05/17 06:32:07;;;;;;;4.35;2.15;;;;;;;25.81;46.41;101590.48;1703803;83;21093;-47
2022/05/17 06:34:33;;;;;;;4.53;2.58;;;;;;;25.81;46.41;101590.48;1676548;84;21014;-45
2022/05/17 06:37:03;;;;;;;3.70;2.47;;;;;;;25.79;46.65;101591.94;1696887;83;21014;-46
2022/05/17 06:39:30;;;;;;;2.92;2.35;;;;;;;25.76;45.93;101595.31;1674521;85;21530;-46
2022/05/17 06:41:57;;;;;;;3.75;2.87;;;;;;;25.75;45.46;101598.45;1687698;83;21076;-46
2022/05/17 06:44:26;;;;;;;3.83;2.10;;;;;;;25.75;45.46;101598.45;1709268;84;21105;-46
2022/05/17 06:46:54;;;;;;;3.95;2.40;;;;;;;25.72;44.63;101599.99;1699542;84;21104;-46
2022/05/17 06:49:21;;;;;;;4.87;2.08;;;;;;;25.76;42.86;101605.47;1684723;83;21050;-49
2022/05/17 06:51:49;;;;;;;4.72;2.10;;;;;;;25.76;42.86;101605.47;1663757;84;21014;-46
2022/05/17 06:54:16;;;;;;;4.40;2.40;;;;;;;25.75;40.69;101597.13;1680179;83;21022;-45
2022/05/17 06:56:43;;;;;;;5.10;2.15;;;;;;;25.75;40.69;101597.13;1677744;85;21576;-49
2022/05/17 06:59:09;;;;;;;4.67;1.80;;;;;;;25.79;39.98;101614.60;1680631;85;21007;-46
2022/05/17 07:01:36;;;;;;;4.70;2.02;;;;;;;25.81;39.65;101611.81;1697350;83;21045;-49
2022/05/17 07:04:04;;;;;;;2.72;1.67;;;;;;;25.81;39.35;101606.02;1682563;83;21028;-45
2022/05/17 07:06:30;;;;;;;4.85;1.95;;;;;;;25.74;39.03;101614.06;1698908;84;20990;-45
2022/05/17 07:08:57;;;;;;;3.92;1.90;;;;;;;25.74;39.03;101614.06;1663894;84;21571;-46
2022/05/17 07:14:10;;;;;;;3.42;1.77;;;;;;;25.73;36.94;101619.52;1700075;83;22262;-49
2022/05/17 07:16:37;;;;;;;4.03;1.60;;;;;;;25.75;36.80;101617.59;1692362;84;21006;-47
2022/05/17 07:19:04;;;;;;;2.15;1.40;;;;;;;25.77;36.57;101611.19;1681323;85;20999;-45
2022/05/17 07:21:31;;;;;;;5.78;1.82;;;;;;;25.77;36.57;101611.19;1678252;85;21518;-49
2022/05/17 07:23:58;;;;;;;2.58;1.60;;;;;;;25.81;37.04;101612.67;1680712;85;21090;-51
2022/05/17 07:26:25;;;;;;;3.55;1.87;;;;;;;25.94;37.41;101614.45;1692801;84;21046;-46
2022/05/17 07:28:52;;;;;;;2.10;1.50;;;;;;;26.29;35.08;101612.77;1674373;84;21054;-50
2022/05/17 07:31:20;;;;;;;3.35;1.65;;;;;;;26.29;35.08;101612.77;1684162;84;21052;-50
2022/05/17 07:33:46;;;;;;;4.50;1.80;;;;;;;26.49;34.61;101613.00;1702991;84;21561;-47
2022/05/17 07:36:15;;;;;;;2.77;1.77;;;;;;;26.71;34.19;101614.89;1679602;84;21023;-49
2022/05/17 07:38:45;;;;;;;5.25;1.67;;;;;;;26.89;33.90;101618.05;1669287;84;21026;-46
2022/05/17 07:41:11;;;;;;;2.37;1.47;;;;;;;26.97;33.23;101613.83;1672938;84;21121;-45
2022/05/17 07:43:38;;;;;;;3.27;1.27;;;;;;;27.01;32.98;101615.29;1690608;83;21105;-49
2022/05/17 07:46:05;;;;;;;3.67;1.32;;;;;;;27.02;32.96;101614.30;1670693;85;21082;-45
2022/05/17 07:48:33;;;;;;;5.05;1.67;;;;;;;27.04;32.73;101623.05;1672596;84;21077;-44
2022/05/17 07:51:01;;;;;;;3.33;1.62;;;;;;;27.07;32.38;101613.95;1697614;83;21049;-45
2022/05/17 07:53:28;;;;;;;4.58;1.50;;;;;;;27.11;32.85;101616.28;1698861;83;21031;-45
2022/05/17 07:55:55;;;;;;;1.70;1.30;;;;;;;27.13;32.87;101611.67;1697092;84;21112;-47
2022/05/17 07:58:21;;;;;;;4.67;1.72;;;;;;;27.16;32.32;101613.27;1678438;84;21510;-45
2022/05/17 08:00:49;;;;;;;3.27;1.77;;;;;;;27.13;31.50;101606.33;1692304;84;21045;-50
2022/05/17 08:03:18;;;;;;;3.67;1.75;;;;;;;27.11;32.43;101612.27;1677451;84;21648;-46
2022/05/17 08:05:45;;;;;;;2.30;1.55;;;;;;;27.07;32.48;101609.47;1696030;83;20993;-48
2022/05/17 08:08:12;;;;;;;2.62;1.50;;;;;;;27.08;33.29;101613.00;1676948;84;21041;-46
2022/05/17 08:10:40;;;;;;;3.55;1.60;;;;;;;27.12;33.01;101613.13;1677212;84;21020;-46
2022/05/17 08:13:07;;;;;;;3.87;2.05;;;;;;;27.18;32.77;101614.82;1663078;84;21038;-46
2022/05/17 08:15:36;;;;;;;3.30;1.95;;;;;;;27.25;32.23;101609.37;1681135;83;21049;-47
2022/05/17 08:20:35;;;;;;;4.33;1.70;;;;;;;27.41;32.66;101609.56;1633377;87;21114;-47
2022/05/17 08:23:01;;;;;;;3.58;1.80;;;;;;;27.52;32.60;101613.08;1638148;87;21035;-51
2022/05/17 08:28:14;;;;;;;3.85;2.27;;;;;;;27.64;33.20;101609.43;1636363;87;21126;-50
2022/05/17 08:30:42;;;;;;;4.53;2.40;;;;;;;27.63;34.40;101608.22;1636952;87;21070;-49
2022/05/17 08:33:15;;;;;;;4.37;2.60;;;;;;;27.60;34.97;101598.61;1637127;87;21089;-50
2022/05/17 08:36:01;;;;;;;4.85;2.65;;;;;;;27.58;35.33;101598.36;1630806;86;21554;-47
2022/05/17 08:38:35;;;;;;;2.70;1.85;;;;;;;27.57;35.81;101597.53;1634033;87;21034;-46
2022/05/17 08:41:36;;;;;;;5.28;2.70;;;;;;;27.55;35.49;101595.47;1635415;86;21106;-49
2022/05/17 08:44:11;;;;;;;5.03;2.22;;;;;;;27.52;35.75;101590.83;1637056;86;21070;-49
2022/05/17 08:47:05;;;;;;;5.15;2.12;;;;;;;27.46;35.97;101589.50;1614185;87;21463;-47
2022/05/17 08:50:03;;;;;;;2.70;2.00;;;;;;;27.41;36.10;101589.00;1636525;86;21507;-47
2022/05/17 08:52:31;;;;;;;4.42;3.00;;;;;;;27.36;36.61;101588.53;1634417;86;21047;-50
2022/05/17 08:55:16;;;;;;;6.42;2.62;;;;;;;27.29;36.65;101584.12;1639214;86;21047;-48
2022/05/17 08:57:47;;;;;;;5.30;2.33;;;;;;;27.22;36.95;101589.56;1633104;86;21029;-48
2022/05/17 09:00:21;;;;;;;;;;;;;;;27.14;37.16;101585.30;1642364;86;21019;-48
2022/05/17 09:03:11;;;;;;;3.50;2.10;;;;;;;27.08;37.23;101584.45;1631707;87;20156;-50
2022/05/17 09:05:59;;;;;;;5.72;2.37;;;;;;;27.02;37.39;101587.59;1639379;87;21129;-48
2022/05/17 09:08:49;;;;;;;4.05;2.27;;;;;;;26.98;37.70;101591.95;1632551;87;21097;-46
2022/05/17 09:11:27;;;;;;;3.87;2.20;;;;;;;26.92;38.10;101583.93;1639366;86;21046;-47
2022/05/17 09:14:02;;;;;;;4.78;2.10;;;;;;;26.88;38.33;101581.61;1642471;87;21074;-48
2022/05/17 09:16:33;;;;;;;5.15;2.55;;;;;;;26.85;38.62;101586.72;1605165;89;21109;-46
2022/05/17 09:19:00;;;;;;;4.12;2.17;;;;;;;26.89;38.71;101589.53;1588679;89;21166;-48
2022/05/17 09:21:37;;;;;;;3.10;2.22;;;;;;;26.94;38.62;101598.02;1589966;89;21210;-48
2022/05/17 09:24:08;;;;;;;5.17;2.17;;;;;;;26.96;38.52;101592.08;1586689;89;21084;-47
2022/05/17 09:26:36;;;;;;;3.37;2.22;;;;;;;26.97;38.80;101591.12;1561857;91;21098;-48
2022/05/17 09:29:18;;;;;;;2.12;1.92;;;;;;;26.97;38.96;101591.59;1558543;90;22429;-49
2022/05/17 09:32:01;;;;;;;8.43;2.55;;;;;;;26.94;39.15;101586.00;1549206;91;21113;-49
2022/05/17 09:34:33;;;;;;;5.25;2.58;;;;;;;26.97;39.56;101581.77;1561239;90;21078;-48
2022/05/17 09:37:17;;;;;;;12.15;7.47;;;;;;;27.01;39.70;101588.58;1554846;90;21050;-46
2022/05/17 09:39:49;;;;;;;4.80;3.55;;;;;;;27.06;39.76;101584.22;1489794;95;21692;-48
2022/05/17 09:42:30;;;;;;;5.12;2.60;;;;;;;27.10;40.02;101579.83;1509394;94;21172;-51
2022/05/17 09:45:06;;;;;;;39.08;32.95;;;;;;;27.15;40.10;101577.67;1502376;95;21601;-47
2022/05/17 09:47:56;;;;;;;7.70;5.65;;;;;;;27.21;40.24;101575.85;1485423;95;21138;-48
2022/05/17 09:53:10;;;;;;;7.53;4.97;;;;;;;27.33;40.14;101574.88;1510206;93;21141;-49
2022/05/17 09:55:42;;;;;;;3.70;2.30;;;;;;;27.39;40.00;101578.44;1519056;93;21012;-48
2022/05/17 09:58:11;;;;;;;6.42;2.50;;;;;;;27.39;39.98;101575.77;1490292;95;21121;-48
2022/05/17 10:00:50;;;;;;;4.63;2.27;;;;;;;27.42;40.21;101579.17;1517030;93;21167;-49
2022/05/17 10:03:31;;;;;;;4.45;2.45;;;;;;;27.43;40.13;101571.02;1510966;94;21092;-49
2022/05/17 10:06:07;;;;;;;3.12;2.00;;;;;;;27.40;40.25;101573.95;1532776;92;21652;-45
2022/05/17 10:08:47;;;;;;;6.55;2.55;;;;;;;27.38;39.99;101571.41;1503721;94;21222;-48
2022/05/17 10:11:22;;;;;;;5.95;2.00;;;;;;;27.39;39.68;101567.75;1503772;94;21106;-46
2022/05/17 10:14:24;;;;;;;4.92;2.25;;;;;;;27.43;39.49;101564.84;1547144;91;21108;-47
2022/05/17 10:17:16;;;;;;;4.72;2.20;;;;;;;27.45;39.48;101565.06;1562408;90;21109;-46
2022/05/17 10:20:08;;;;;;;3.60;1.80;;;;;;;27.48;39.40;101563.50;1577012;89;21068;-47
2022/05/17 10:23:05;;;;;;;4.58;2.10;;;;;;;27.52;39.46;101558.75;1583592;89;22001;-50
2022/05/17 10:25:47;;;;;;;3.00;2.42;;;;;;;27.56;39.52;101558.87;1516402;92;21070;-49
2022/05/17 10:28:52;;;;;;;4.08;2.10;;;;;;;27.60;39.35;101561.66;1501839;93;21138;-49
2022/05/17 10:31:36;;;;;;;4.53;2.50;;;;;;;27.61;39.27;101558.03;1552904;91;21200;-47
2022/05/17 10:34:48;;;;;;;6.40;3.08;;;;;;;27.56;39.45;101553.05;1547002;91;22348;-51
2022/05/17 10:37:19;;;;;;;3.67;2.27;;;;;;;27.52;39.43;101554.74;1584264;89;21125;-48
2022/05/17 10:40:06;;;;;;;2.40;2.10;;;;;;;27.47;39.71;101547.59;1600852;88;21514;-46
2022/05/17 10:42:34;;;;;;;6.67;2.40;;;;;;;27.43;39.72;101543.47;1573943;86;21658;-48
2022/05/17 10:45:00;;;;;;;4.47;2.50;;;;;;;27.39;40.29;101538.83;1620150;87;21683;-46
2022/05/17 10:47:50;;;;;;;3.60;2.25;;;;;;;27.38;40.48;101533.99;1614458;87;21098;-49
2022/05/17 10:50:43;;;;;;;6.33;2.17;;;;;;;27.39;40.36;101527.66;1604426;87;21125;-46
2022/05/17 10:53:38;;;;;;;3.05;2.10;;;;;;;27.43;40.02;101532.77;1622621;86;22038;-49
2022/05/17 10:56:32;;;;;;;4.33;2.17;;;;;;;27.45;39.88;101532.16;1591695;88;21162;-48
2022/05/17 10:59:25;;;;;;;4.35;2.00;;;;;;;27.44;39.93;101524.63;1592284;88;21666;-48
2022/05/17 11:02:01;;;;;;;3.75;2.47;;;;;;;27.44;39.55;101523.77;1617138;87;21113;-48
2022/05/17 11:05:01;;;;;;;5.03;3.40;;;;;;;27.44;39.47;101519.28;1621819;87;21061;-47
2022/05/17 11:08:04;;;;;;;4.95;3.37;;;;;;;27.44;39.39;101517.94;1616677;85;21112;-48
2022/05/17 11:11:28;;;;;;;3.87;2.40;;;;;;;27.44;39.45;101515.75;1627630;87;21515;-53
2022/05/17 11:14:03;;;;;;;4.22;2.72;;;;;;;27.46;39.26;101511.13;1623512;86;21091;-50
2022/05/17 11:17:00;;;;;;;6.50;4.17;;;;;;;27.48;39.36;101506.50;1643049;85;21727;-46
2022/05/17 11:19:51;;;;;;;2.77;2.02;;;;;;;27.49;39.24;101501.54;1642853;86;21062;-50
2022/05/17 11:22:35;;;;;;;5.55;2.35;;;;;;;27.51;39.06;101499.59;1627018;85;22030;-49
2022/05/17 11:25:40;;;;;;;3.27;2.17;;;;;;;27.54;39.11;101497.99;1641410;86;21098;-49
2022/05/17 11:28:51;;;;;;;4.45;2.17;;;;;;;27.56;39.15;101493.38;1648374;85;21053;-48
2022/05/17 11:31:23;;;;;;;4.47;1.90;;;;;;;27.57;39.11;101491.08;1646381;85;21640;-49
2022/05/17 11:33:51;;;;;;;2.05;1.80;;;;;;;27.59;39.05;101493.14;1629103;86;21001;-47
2022/05/17 11:36:38;;;;;;;2.83;1.90;;;;;;;27.60;39.13;101488.13;1618539;87;21594;-48
2022/05/17 11:39:05;;;;;;;4.30;2.10;;;;;;;27.61;39.14;101480.49;1650998;84;21167;-47
2022/05/17 11:41:43;;;;;;;3.33;2.02;;;;;;;27.64;39.43;101475.73;1696866;83;21081;-50
2022/05/17 11:44:15;;;;;;;3.27;2.10;;;;;;;27.67;39.58;101473.30;1686672;84;21619;-48
2022/05/17 11:46:48;;;;;;;3.85;1.90;;;;;;;27.69;39.52;101471.36;1672083;84;21053;-48
2022/05/17 11:49:21;;;;;;;3.20;1.90;;;;;;;27.72;39.70;101473.80;1691263;83;21087;-47
2022/05/17 11:52:03;;;;;;;2.33;1.87;;;;;;;27.73;39.70;101468.79;1681277;84;21050;-49
2022/05/17 11:54:45;;;;;;;4.62;2.52;;;;;;;27.75;39.97;101458.81;1703792;82;21515;-48
2022/05/17 11:57:29;;;;;;;4.58;2.02;;;;;;;27.78;40.10;101455.91;1696188;82;21052;-49
2022/05/17 12:00:04;;;;;;;5.53;2.50;;;;;;;27.79;40.25;101443.73;1668650;85;21046;-50
2022/05/17 12:02:47;;;;;;;2.30;1.90;;;;;;;27.81;40.35;101450.28;1686962;84;21041;-48
2022/05/17 12:05:47;;;;;;;3.42;2.42;;;;;;;27.81;40.61;101446.27;1633537;86;21038;-50